Time;durP1;ratioP1;P1;durP2;ratioP2;P2;SDS_P1;SDS_P2;PMS_P1;PMS_P2;Temp;Humidity;BMP_temperature;BMP_pressure;BME280_temperature;BME280_humidity;BME280_pressure;Samples;Min_cycle;Max_cycle;Signal;HPM_P1;HPM_P2
2023/08/13 00:00:06;;;;;;;8.40;6.47;;;;;;;17.09;74.83;100908.18;1712086;79;21227;-53
2023/08/13 00:08:10;;;;;;;10.45;7.33;;;;;;;17.00;75.09;100914.95;1706772;79;21205;-54
2023/08/13 00:13:47;;;;;;;10.38;6.20;;;;;;;16.94;75.23;100913.84;1706556;78;23016;-54
2023/08/13 00:19:22;;;;;;;13.08;6.33;;;;;;;16.83;75.04;100903.34;1707169;80;22026;-54
2023/08/13 00:22:29;;;;;;;11.22;6.55;;;;;;;16.81;75.04;100918.45;1705168;80;21244;-54
2023/08/13 00:28:02;;;;;;;9.85;7.25;;;;;;;16.71;75.11;100913.80;1708375;80;21516;-54
2023/08/13 00:31:07;;;;;;;8.55;6.80;;;;;;;16.69;75.20;100914.52;1695338;80;21275;-54
2023/08/13 00:36:40;;;;;;;8.53;6.25;;;;;;;16.62;75.39;100903.97;1706624;80;21335;-53
2023/08/13 00:42:15;;;;;;;10.23;7.72;;;;;;;16.56;75.42;100917.19;1700232;79;21263;-53
2023/08/13 00:47:50;;;;;;;8.85;7.95;;;;;;;16.53;75.74;100919.84;1702467;82;21276;-54
2023/08/13 00:53:26;;;;;;;10.45;8.63;;;;;;;16.54;76.12;100924.85;1707460;80;21399;-53
2023/08/13 00:59:00;;;;;;;10.60;8.65;;;;;;;16.54;76.38;100911.86;1703177;80;21367;-54
2023/08/13 01:04:37;;;;;;;11.73;8.00;;;;;;;16.53;76.44;100912.06;1701873;80;21378;-54
2023/08/13 01:10:40;;;;;;;14.23;9.03;;;;;;;16.45;76.31;100915.84;1709142;79;21291;-55
2023/08/13 01:16:17;;;;;;;16.67;9.08;;;;;;;16.39;76.44;100921.59;1698065;81;21780;-54
2023/08/13 01:21:53;;;;;;;10.60;9.48;;;;;;;16.40;76.73;100919.18;1654158;82;21957;-55
2023/08/13 01:30:16;;;;;;;14.30;9.43;;;;;;;16.38;76.94;100922.66;1710191;80;21457;-54
2023/08/13 01:41:00;;;;;;;12.33;9.83;;;;;;;16.32;77.05;100933.14;1711051;80;21750;-54
2023/08/13 01:44:08;;;;;;;10.80;9.55;;;;;;;16.31;77.05;100933.34;1697971;80;21212;-54
2023/08/13 01:49:44;;;;;;;12.00;9.95;;;;;;;16.27;77.36;100932.02;1707432;80;21424;-54
2023/08/13 01:55:20;;;;;;;15.50;10.15;;;;;;;16.26;77.60;100938.09;1708750;80;21438;-55
2023/08/13 02:00:57;;;;;;;12.98;10.25;;;;;;;16.26;77.76;100931.19;1702066;79;21306;-54
2023/08/13 02:06:35;;;;;;;12.25;10.95;;;;;;;16.24;77.89;100937.42;1708621;79;21508;-53
2023/08/13 02:12:13;;;;;;;13.00;10.75;;;;;;;16.24;78.04;100934.66;1702902;80;21370;-54
2023/08/13 02:20:20;;;;;;;15.05;11.33;;;;;;;16.24;78.32;100933.28;1711502;79;21292;-54
2023/08/13 02:25:56;;;;;;;13.03;11.53;;;;;;;16.25;78.47;100931.38;1709746;80;21658;-54
2023/08/13 02:31:30;;;;;;;16.30;10.93;;;;;;;16.25;78.56;100939.67;1710524;79;21213;-54
2023/08/13 02:34:40;;;;;;;12.88;11.40;;;;;;;16.26;78.60;100945.52;1699959;82;21243;-54
2023/08/13 02:40:16;;;;;;;12.73;10.70;;;;;;;16.23;78.79;100944.02;1697009;80;21387;-53
2023/08/13 02:48:20;;;;;;;12.63;11.25;;;;;;;16.24;78.90;100947.61;1701690;81;21326;-54
2023/08/13 02:51:26;;;;;;;14.47;10.90;;;;;;;16.25;78.86;100951.55;1698496;80;21339;-53
2023/08/13 02:57:02;;;;;;;14.80;11.48;;;;;;;16.25;78.77;100957.08;1709578;80;21251;-54
2023/08/13 03:02:38;;;;;;;13.03;10.88;;;;;;;16.23;78.78;100952.82;1705873;79;21439;-54
2023/08/13 03:08:14;;;;;;;15.08;11.12;;;;;;;16.23;78.92;100957.83;1704157;80;22473;-55
2023/08/13 03:11:19;;;;;;;13.22;11.50;;;;;;;16.24;78.96;100960.91;1703759;79;21244;-54
2023/08/13 03:19:23;;;;;;;16.55;11.25;;;;;;;16.28;79.15;100968.28;1700975;81;21377;-53
2023/08/13 03:24:59;;;;;;;16.55;12.03;;;;;;;16.33;79.35;100972.14;1707238;79;21295;-54
2023/08/13 03:33:07;;;;;;;15.28;12.88;;;;;;;16.42;79.58;100995.84;1706078;80;21290;-54
2023/08/13 03:38:41;;;;;;;16.00;12.93;;;;;;;16.51;79.73;100986.06;1690298;80;21278;-54
2023/08/13 03:41:46;;;;;;;14.80;12.03;;;;;;;16.55;79.79;100987.36;1692075;80;21851;-55
2023/08/13 03:47:22;;;;;;;15.18;13.10;;;;;;;16.66;79.94;100995.11;1675911;81;21386;-56
2023/08/13 03:52:59;;;;;;;18.73;13.28;;;;;;;16.78;80.05;100999.02;1675445;81;21235;-55
2023/08/13 04:01:13;;;;;;;14.50;12.95;;;;;;;16.92;80.17;101004.45;1699941;79;21413;-55
2023/08/13 04:04:20;;;;;;;15.90;12.70;;;;;;;16.97;80.20;101001.08;1709843;80;21224;-55
2023/08/13 04:09:39;;;;;;;17.92;13.00;;;;;;;17.09;80.32;100998.09;1675450;83;21338;-53
2023/08/13 04:15:17;;;;;;;15.80;13.48;;;;;;;17.21;80.38;101001.98;1653590;83;21304;-54
2023/08/13 04:18:25;;;;;;;14.95;12.93;;;;;;;17.25;80.42;100997.22;1703613;80;21283;-54
2023/08/13 04:21:34;;;;;;;14.15;12.25;;;;;;;17.32;80.49;100999.52;1705756;81;21430;-54
2023/08/13 04:24:40;;;;;;;19.05;12.50;;;;;;;17.38;80.54;100999.20;1709711;79;21363;-54
2023/08/13 04:27:47;;;;;;;15.65;13.05;;;;;;;17.46;80.62;101001.84;1695882;80;21399;-54
2023/08/13 04:30:55;;;;;;;16.27;13.22;;;;;;;17.53;80.71;101008.27;1710000;80;21382;-53
2023/08/13 04:34:01;;;;;;;15.68;13.10;;;;;;;17.60;80.77;101010.56;1708586;79;21241;-54
2023/08/13 04:37:07;;;;;;;14.90;13.30;;;;;;;17.66;80.88;101011.95;1710434;80;21383;-54
2023/08/13 04:40:16;;;;;;;16.52;14.03;;;;;;;17.75;80.99;101004.33;1682804;82;21224;-53
2023/08/13 04:48:24;;;;;;;16.85;14.93;;;;;;;18.02;81.27;101008.89;1699026;79;21213;-54
2023/08/13 04:53:58;;;;;;;17.05;15.25;;;;;;;18.20;81.42;101004.15;1684700;81;21394;-54
2023/08/13 04:59:33;;;;;;;19.37;14.63;;;;;;;18.37;81.54;101007.70;1724687;80;21236;-54
2023/08/13 05:05:09;;;;;;;16.52;14.83;;;;;;;18.56;81.69;101011.06;1734662;80;21223;-54
2023/08/13 05:10:46;;;;;;;17.27;14.70;;;;;;;18.76;81.86;101013.81;1731252;77;21225;-54
2023/08/13 05:16:20;;;;;;;18.45;15.20;;;;;;;18.96;82.00;101018.28;1725166;80;21440;-55
2023/08/13 05:21:57;;;;;;;14.63;13.05;;;;;;;19.16;82.06;101023.30;1721517;79;21922;-54
2023/08/13 05:25:02;;;;;;;13.53;12.18;;;;;;;19.23;82.05;101025.52;1735355;80;21227;-55
2023/08/13 05:30:37;;;;;;;13.13;11.80;;;;;;;19.43;82.08;101020.48;1732948;81;21299;-53
2023/08/13 05:33:42;;;;;;;16.10;13.00;;;;;;;19.51;82.08;101028.58;1696649;82;21445;-55
2023/08/13 05:39:18;;;;;;;13.18;10.43;;;;;;;19.67;82.02;101025.33;1719007;78;21766;-55
2023/08/13 05:44:53;;;;;;;12.35;10.48;;;;;;;19.81;81.98;101029.23;1674928;80;21423;-55
2023/08/13 05:50:31;;;;;;;12.13;9.78;;;;;;;19.96;81.91;101037.30;1679535;82;21291;-53
2023/08/13 05:56:07;;;;;;;13.30;9.98;;;;;;;20.10;81.86;101049.52;1682246;80;21302;-54
2023/08/13 05:59:13;;;;;;;14.03;9.78;;;;;;;20.16;81.85;101047.27;1670810;83;21386;-54
2023/08/13 06:04:47;;;;;;;10.03;9.03;;;;;;;20.30;81.79;101048.91;1674853;82;21409;-54
2023/08/13 06:10:21;;;;;;;11.20;9.55;;;;;;;20.42;81.66;101049.88;1645472;82;21247;-54
2023/08/13 06:15:58;;;;;;;11.65;9.08;;;;;;;20.58;81.65;101056.88;1661912;82;21385;-55
2023/08/13 06:21:33;;;;;;;10.23;8.38;;;;;;;20.73;81.63;101056.00;1649475;82;21233;-55
2023/08/13 06:27:09;;;;;;;9.55;7.78;;;;;;;20.89;81.63;101054.05;1647866;82;21227;-55
2023/08/13 06:35:15;;;;;;;9.73;7.80;;;;;;;21.11;81.48;101052.61;1673104;81;21918;-55
2023/08/13 06:40:50;;;;;;;8.88;7.97;;;;;;;21.26;81.42;101051.73;1678010;81;21294;-55
2023/08/13 06:46:25;;;;;;;9.00;7.22;;;;;;;21.42;81.35;101054.45;1681577;82;21236;-54
2023/08/13 06:54:29;;;;;;;9.28;6.55;;;;;;;21.66;81.24;101043.80;1681618;80;21919;-54
2023/08/13 06:57:35;;;;;;;9.58;7.45;;;;;;;21.72;81.20;101055.41;1673795;82;21234;-54
2023/08/13 07:05:41;;;;;;;7.72;5.42;;;;;;;21.94;80.96;101046.91;1703181;80;21247;-55
2023/08/13 07:08:46;;;;;;;6.60;5.83;;;;;;;22.02;80.95;101046.03;1697268;81;21373;-54
2023/08/13 07:11:53;;;;;;;6.90;5.55;;;;;;;22.13;80.88;101045.27;1715953;81;21293;-55
2023/08/13 07:17:29;;;;;;;7.85;5.20;;;;;;;22.27;80.53;101042.28;1683494;80;21323;-55
2023/08/13 07:23:05;;;;;;;6.33;4.22;;;;;;;22.40;80.25;101039.30;1659879;80;21237;-54
2023/08/13 07:28:44;;;;;;;6.30;3.80;;;;;;;22.55;80.03;101050.37;1735420;78;21276;-55
2023/08/13 07:36:47;;;;;;;4.83;3.67;;;;;;;22.77;79.59;101045.11;1698213;80;21401;-55
2023/08/13 07:39:54;;;;;;;7.28;3.90;;;;;;;22.84;79.52;101050.02;1675299;80;21274;-54
2023/08/13 07:45:30;;;;;;;4.72;3.60;;;;;;;23.00;79.14;101047.39;1699117;81;21298;-53
2023/08/13 07:51:04;;;;;;;5.40;3.20;;;;;;;23.09;78.78;101047.34;1676782;80;21281;-53
2023/08/13 07:54:11;;;;;;;4.58;3.15;;;;;;;23.14;78.60;101063.36;1633556;82;21861;-55
2023/08/13 07:59:46;;;;;;;5.08;3.00;;;;;;;23.22;78.04;101056.03;1646754;83;21810;-55
2023/08/13 08:02:47;;;;;;;6.67;3.25;;;;;;;23.23;77.88;101061.38;1663093;80;21248;-53
2023/08/13 08:08:23;;;;;;;3.83;2.70;;;;;;;23.38;77.59;101063.72;1660378;83;21244;-55
2023/08/13 08:16:28;;;;;;;5.50;2.47;;;;;;;23.55;76.95;101050.70;1661709;81;21773;-54
2023/08/13 08:19:35;;;;;;;4.15;2.30;;;;;;;23.60;76.74;101055.02;1680861;80;21241;-54
2023/08/13 08:25:16;;;;;;;4.30;2.10;;;;;;;23.68;76.14;101054.66;1688063;81;21391;-54
2023/08/13 08:28:22;;;;;;;3.25;2.50;;;;;;;23.70;75.86;101048.81;1709754;79;21236;-55
2023/08/13 08:31:30;;;;;;;4.30;2.95;;;;;;;23.72;75.63;101047.48;1681033;81;21263;-54
2023/08/13 08:34:35;;;;;;;7.15;2.30;;;;;;;23.77;75.48;101048.97;1678962;82;21394;-54
2023/08/13 08:40:12;;;;;;;6.35;2.52;;;;;;;23.88;75.00;101052.87;1670765;80;21532;-55
2023/08/13 08:43:18;;;;;;;3.95;2.70;;;;;;;23.90;74.78;101052.91;1669859;81;21263;-54
2023/08/13 08:46:24;;;;;;;5.72;2.40;;;;;;;23.95;74.47;101046.03;1681570;81;21263;-54
2023/08/13 08:52:00;;;;;;;6.28;2.50;;;;;;;24.04;73.97;101046.54;1682776;81;21271;-54
2023/08/13 08:57:35;;;;;;;6.35;2.33;;;;;;;24.13;73.47;101056.23;1681011;81;21307;-54
2023/08/13 09:03:12;;;;;;;4.50;2.70;;;;;;;24.22;73.00;101046.34;1677199;82;21296;-55
2023/08/13 09:08:47;;;;;;;4.70;2.87;;;;;;;24.31;72.52;101056.89;1708401;78;21397;-55
2023/08/13 09:14:23;;;;;;;6.08;2.85;;;;;;;24.38;71.93;101054.80;1706197;80;21248;-54
2023/08/13 09:20:00;;;;;;;3.85;2.95;;;;;;;24.36;71.42;101052.80;1707898;79;21257;-54
2023/08/13 09:28:05;;;;;;;4.40;2.50;;;;;;;24.33;70.57;101052.44;1702055;80;21273;-54
2023/08/13 09:33:40;;;;;;;6.35;2.83;;;;;;;24.44;70.12;101053.80;1700705;80;21872;-54
2023/08/13 09:39:16;;;;;;;3.40;2.47;;;;;;;24.58;69.69;101046.78;1722872;80;21769;-55
2023/08/13 09:47:20;;;;;;;4.65;2.58;;;;;;;24.94;69.26;101044.95;1675688;81;21716;-54
2023/08/13 09:50:26;;;;;;;5.78;2.75;;;;;;;25.05;69.01;101048.23;1665153;82;21309;-54
2023/08/13 09:56:03;;;;;;;4.12;2.50;;;;;;;25.27;68.36;101053.07;1671711;80;21238;-54
2023/08/13 09:59:09;;;;;;;5.35;2.90;;;;;;;25.37;68.08;101056.91;1680181;80;21350;-54
2023/08/13 10:02:15;;;;;;;5.00;2.70;;;;;;;25.50;67.75;101050.95;1680671;80;21249;-54
2023/08/13 10:05:20;;;;;;;7.12;2.80;;;;;;;25.62;67.37;101055.06;1683047;81;21765;-54
2023/08/13 10:08:27;;;;;;;4.50;3.12;;;;;;;25.72;67.03;101057.45;1679738;79;21602;-56
2023/08/13 10:11:33;;;;;;;6.00;2.80;;;;;;;25.71;66.45;101058.56;1672503;82;21272;-55
2023/08/13 10:14:39;;;;;;;5.33;2.42;;;;;;;25.69;66.18;101064.98;1674807;81;21216;-55
2023/08/13 10:17:47;;;;;;;4.33;2.15;;;;;;;25.72;65.79;101065.04;1669899;82;21836;-55
2023/08/13 10:25:52;;;;;;;3.62;2.20;;;;;;;25.92;65.04;101051.28;1678028;83;21794;-54
2023/08/13 10:31:33;;;;;;;3.65;2.75;;;;;;;26.12;64.39;101045.95;1684985;81;21247;-53
2023/08/13 10:34:54;;;;;;;4.85;2.40;;;;;;;26.24;64.19;101048.09;1694822;80;21283;-54
2023/08/13 10:38:04;;;;;;;3.35;2.42;;;;;;;26.32;63.86;101044.81;1706989;78;21345;-54
2023/08/13 10:43:40;;;;;;;5.42;2.25;;;;;;;26.53;63.07;101055.14;1709657;79;21677;-55
2023/08/13 10:51:46;;;;;;;4.47;2.37;;;;;;;26.76;62.25;101039.42;1706765;80;21360;-54
2023/08/13 10:54:52;;;;;;;6.80;2.33;;;;;;;26.86;61.94;101048.52;1700923;80;21216;-54
2023/08/13 11:00:30;;;;;;;5.55;2.00;;;;;;;27.00;61.20;101041.33;1672600;81;21251;-56
2023/08/13 11:03:39;;;;;;;2.72;2.08;;;;;;;27.08;60.97;101046.46;1665746;82;21232;-54
2023/08/13 11:06:46;;;;;;;3.77;1.82;;;;;;;27.23;60.72;101044.62;1674196;82;21295;-54
2023/08/13 11:09:52;;;;;;;3.42;1.92;;;;;;;27.34;60.35;101041.34;1677353;81;21238;-55
2023/08/13 11:15:28;;;;;;;6.28;2.25;;;;;;;27.46;59.46;101039.20;1672598;81;21271;-54
2023/08/13 11:18:33;;;;;;;4.12;1.87;;;;;;;27.48;59.21;101041.20;1663414;82;21740;-56
2023/08/13 11:21:39;;;;;;;2.70;1.85;;;;;;;27.58;59.02;101034.20;1679256;80;21287;-55
2023/08/13 11:27:14;;;;;;;3.22;1.70;;;;;;;27.84;58.21;101032.66;1680810;77;21608;-54
2023/08/13 11:32:52;;;;;;;3.83;1.92;;;;;;;27.91;57.42;101026.00;1671352;79;21259;-55
2023/08/13 11:38:29;;;;;;;3.52;2.00;;;;;;;27.89;56.66;101031.91;1679825;80;21367;-54
2023/08/13 11:46:34;;;;;;;3.45;1.92;;;;;;;28.04;55.90;101025.47;1678246;80;21276;-54
2023/08/13 11:49:50;;;;;;;7.12;1.70;;;;;;;28.11;55.54;101025.53;1670214;80;21275;-54
2023/08/13 11:53:20;;;;;;;3.65;1.70;;;;;;;28.18;55.13;101023.86;1683006;79;21281;-55
2023/08/13 11:56:27;;;;;;;4.55;1.70;;;;;;;28.24;54.86;101026.39;1621157;81;21304;-54
2023/08/13 11:59:16;;;;;;;4.70;2.08;;;;;;;28.27;54.31;101030.65;1677647;80;21744;-54
2023/08/13 12:02:22;;;;;;;2.62;1.90;;;;;;;28.26;53.91;101028.38;1648588;80;21255;-54
2023/08/13 12:05:34;;;;;;;4.97;1.50;;;;;;;28.22;53.43;101034.85;1659805;81;21313;-53
2023/08/13 12:08:39;;;;;;;5.03;1.70;;;;;;;28.29;52.77;101025.01;1706808;79;21426;-54
2023/08/13 12:11:46;;;;;;;3.42;1.72;;;;;;;28.29;52.77;101025.01;1703655;79;21259;-53
2023/08/13 12:14:52;;;;;;;3.65;1.70;;;;;;;28.31;52.34;101028.41;1704846;80;22002;-54
2023/08/13 12:17:59;;;;;;;5.65;2.05;;;;;;;28.34;51.86;101028.40;1705931;80;21809;-53
2023/08/13 12:23:34;;;;;;;3.62;1.70;;;;;;;28.28;51.53;101023.87;1703911;81;21454;-54
2023/08/13 12:26:41;;;;;;;3.67;2.00;;;;;;;28.29;51.10;101031.23;1704177;79;21778;-54
2023/08/13 12:29:47;;;;;;;3.25;1.95;;;;;;;28.31;50.89;101029.81;1698462;81;21387;-55
2023/08/13 12:35:21;;;;;;;2.33;1.60;;;;;;;28.14;50.03;101028.34;1701216;81;21191;-55
2023/08/13 12:38:20;;;;;;;2.75;1.82;;;;;;;28.14;50.03;101028.34;1705526;79;21216;-55
2023/08/13 12:41:26;;;;;;;3.00;1.95;;;;;;;28.05;49.41;101027.19;1701327;79;21287;-54
2023/08/13 12:49:33;;;;;;;4.15;2.08;;;;;;;27.95;48.89;101027.13;1704706;79;21252;-54
2023/08/13 12:55:08;;;;;;;3.62;1.80;;;;;;;27.95;48.67;101037.84;1696459;79;21343;-55
2023/08/13 13:00:44;;;;;;;3.40;1.75;;;;;;;27.95;48.26;101027.13;1707276;80;21354;-54
2023/08/13 13:03:51;;;;;;;2.55;1.70;;;;;;;27.93;48.08;101026.55;1701533;80;21224;-54
2023/08/13 13:06:48;;;;;;;5.00;2.00;;;;;;;27.87;47.84;101029.88;1703519;80;22502;-55
2023/08/13 13:09:55;;;;;;;7.00;2.30;;;;;;;27.72;47.54;101019.39;1708133;80;21251;-56
2023/08/13 13:15:31;;;;;;;2.65;1.82;;;;;;;27.34;47.17;101021.11;1712962;81;21216;-56
2023/08/13 13:23:36;;;;;;;3.30;1.90;;;;;;;27.30;47.02;101014.34;1721846;79;21243;-54
2023/08/13 13:26:41;;;;;;;4.37;2.10;;;;;;;27.29;47.01;101021.66;1656867;80;21784;-54
2023/08/13 13:32:15;;;;;;;5.55;1.82;;;;;;;27.23;46.93;101015.09;1692378;80;21211;-54
2023/08/13 13:35:20;;;;;;;4.17;2.20;;;;;;;27.26;46.92;101015.09;1723224;78;21589;-54
2023/08/13 13:38:25;;;;;;;4.28;2.02;;;;;;;27.31;46.93;101014.62;1710435;81;21263;-55
2023/08/13 13:46:31;;;;;;;2.75;1.80;;;;;;;27.38;46.57;101005.41;1721857;80;21597;-55
2023/08/13 13:52:09;;;;;;;6.08;2.33;;;;;;;27.47;46.50;101000.95;1707348;79;21251;-55
2023/08/13 13:57:46;;;;;;;3.37;1.77;;;;;;;27.57;46.35;101004.39;1707811;80;21880;-55
2023/08/13 14:00:54;;;;;;;2.37;1.80;;;;;;;27.58;46.26;101009.74;1716909;79;21203;-54
2023/08/13 14:06:27;;;;;;;3.30;2.33;;;;;;;27.38;45.96;101009.63;1716100;80;21382;-55
2023/08/13 14:14:34;;;;;;;3.75;2.47;;;;;;;27.22;45.72;101014.81;1718492;79;21370;-53
2023/08/13 14:20:12;;;;;;;5.85;2.40;;;;;;;26.99;45.59;101010.13;1745631;79;21353;-54
2023/08/13 14:25:47;;;;;;;13.28;10.40;;;;;;;26.68;45.55;101014.62;1713266;79;21266;-53
2023/08/13 14:28:53;;;;;;;9.78;6.42;;;;;;;26.57;45.58;101018.41;1708505;80;21240;-54
2023/08/13 14:34:29;;;;;;;5.72;2.52;;;;;;;26.53;45.69;101018.63;1664743;81;21746;-55
2023/08/13 14:37:34;;;;;;;7.53;2.12;;;;;;;26.59;45.75;101016.73;1666824;81;21387;-55
2023/08/13 14:43:10;;;;;;;5.42;2.35;;;;;;;26.67;45.64;101017.12;1675970;81;21906;-55
2023/08/13 14:48:45;;;;;;;3.55;2.10;;;;;;;26.68;45.68;101027.27;1670848;81;21334;-55
2023/08/13 14:51:51;;;;;;;6.83;2.90;;;;;;;26.72;45.65;101025.60;1657679;80;21259;-55
2023/08/13 14:57:26;;;;;;;8.28;3.50;;;;;;;26.75;45.61;101030.69;1673945;81;21291;-54
2023/08/13 15:03:02;;;;;;;5.20;2.60;;;;;;;27.01;45.41;101028.95;1675704;81;21251;-54
2023/08/13 15:08:39;;;;;;;4.30;3.00;;;;;;;26.98;45.25;101036.52;1700919;81;21468;-53
2023/08/13 15:14:16;;;;;;;5.42;3.20;;;;;;;26.84;45.16;101031.92;1706434;81;21256;-55
2023/08/13 15:17:22;;;;;;;4.75;2.85;;;;;;;26.82;45.15;101036.95;1695125;80;21263;-54
2023/08/13 15:22:57;;;;;;;3.70;2.27;;;;;;;26.80;45.06;101036.94;1688360;80;21347;-54
2023/08/13 15:26:03;;;;;;;5.17;2.30;;;;;;;26.78;45.06;101035.80;1693055;79;21810;-54
2023/08/13 15:34:08;;;;;;;4.50;2.00;;;;;;;26.90;44.82;101036.46;1674074;80;21232;-55
2023/08/13 15:39:43;;;;;;;4.65;2.15;;;;;;;26.77;44.74;101035.49;1698403;80;22921;-54
2023/08/13 15:45:17;;;;;;;2.50;1.90;;;;;;;26.72;44.58;101028.41;1714433;79;21380;-54
2023/08/13 15:50:53;;;;;;;5.15;2.35;;;;;;;26.52;44.60;101035.75;1705759;79;21224;-54
2023/08/13 15:56:29;;;;;;;5.17;2.85;;;;;;;26.34;44.68;101037.81;1640962;82;21271;-54
2023/08/13 16:02:04;;;;;;;5.00;2.60;;;;;;;26.46;44.68;101034.86;1696476;79;21291;-54
2023/08/13 16:07:39;;;;;;;4.03;2.70;;;;;;;26.39;44.73;101037.02;1672195;79;21236;-55
2023/08/13 16:10:45;;;;;;;5.22;2.87;;;;;;;26.31;44.79;101036.94;1683380;80;21781;-54
2023/08/13 16:16:20;;;;;;;9.08;4.80;;;;;;;26.08;45.01;101040.04;1712057;80;21222;-55
2023/08/13 16:21:56;;;;;;;25.77;17.60;;;;;;;25.95;45.19;101041.80;1710898;80;21816;-55
2023/08/13 16:27:32;;;;;;;48.78;30.55;;;;;;;25.75;45.42;101044.88;1709672;80;21762;-53
2023/08/13 16:30:38;;;;;;;57.23;32.03;;;;;;;25.64;45.54;101043.04;1707849;79;21935;-54
2023/08/13 16:36:10;;;;;;;40.20;22.85;;;;;;;25.36;45.90;101050.16;1702028;80;21267;-54
2023/08/13 16:41:45;;;;;;;35.78;19.10;;;;;;;25.11;46.25;101051.12;1687337;80;21926;-55
2023/08/13 16:44:51;;;;;;;42.78;23.70;;;;;;;25.00;46.42;101050.97;1660154;80;21233;-55
2023/08/13 16:50:27;;;;;;;38.75;20.95;;;;;;;24.73;46.87;101044.86;1664288;82;21289;-55
2023/08/13 16:56:04;;;;;;;37.70;22.82;;;;;;;24.40;47.12;101049.81;1703038;80;21618;-55
2023/08/13 17:01:40;;;;;;;44.03;26.50;;;;;;;24.06;47.53;101045.72;1707932;80;21303;-54
2023/08/13 17:07:15;;;;;;;41.58;26.55;;;;;;;23.69;48.08;101054.11;1687990;80;21627;-54
2023/08/13 17:10:21;;;;;;;36.23;22.35;;;;;;;23.54;48.36;101057.41;1674783;80;21297;-54
2023/08/13 17:16:01;;;;;;;29.65;17.57;;;;;;;23.20;49.16;101066.59;1691886;82;21216;-55
2023/08/13 17:21:35;;;;;;;20.02;12.65;;;;;;;22.92;49.84;101067.83;1695162;80;21243;-54
2023/08/13 17:29:42;;;;;;;15.98;9.88;;;;;;;22.52;50.83;101073.70;1705434;77;21232;-54
2023/08/13 17:35:18;;;;;;;13.40;8.85;;;;;;;22.29;51.58;101089.80;1712139;80;21215;-55
2023/08/13 17:40:54;;;;;;;14.10;8.60;;;;;;;22.05;52.16;101094.40;1705246;80;21211;-55
2023/08/13 17:46:32;;;;;;;12.80;8.40;;;;;;;21.83;52.82;101090.38;1710358;80;21256;-55
2023/08/13 17:52:07;;;;;;;13.48;7.45;;;;;;;21.67;53.57;101101.23;1707703;79;21268;-55
2023/08/13 17:57:43;;;;;;;16.23;7.25;;;;;;;21.51;54.24;101112.44;1704464;79;21277;-55
2023/08/13 18:00:49;;;;;;;11.63;7.37;;;;;;;21.46;54.47;101108.63;1700589;78;21212;-54
2023/08/13 18:08:53;;;;;;;15.63;8.18;;;;;;;21.24;55.23;101109.59;1683030;81;21280;-54
2023/08/13 18:16:59;;;;;;;15.98;8.73;;;;;;;20.99;55.87;101109.26;1713604;80;21246;-54
2023/08/13 18:22:34;;;;;;;15.90;9.33;;;;;;;20.83;56.36;101117.03;1704699;79;21239;-55
2023/08/13 18:25:39;;;;;;;21.00;10.65;;;;;;;20.75;56.55;101119.25;1704675;80;21729;-54
2023/08/13 18:33:46;;;;;;;22.85;13.90;;;;;;;20.52;57.43;101121.20;1703916;80;21729;-55
2023/08/13 18:36:52;;;;;;;24.20;14.23;;;;;;;20.48;57.63;101120.48;1666410;81;21291;-54
2023/08/13 18:42:26;;;;;;;33.18;19.05;;;;;;;20.37;58.37;101127.61;1703001;80;21799;-54
2023/08/13 18:48:02;;;;;;;23.87;15.50;;;;;;;20.31;58.86;101129.03;1697366;81;21271;-54
2023/08/13 18:53:39;;;;;;;24.72;14.90;;;;;;;20.19;59.32;101135.80;1696124;80;21245;-53
2023/08/13 19:01:45;;;;;;;22.25;13.50;;;;;;;19.98;59.63;101131.89;1701806;80;21247;-54
2023/08/13 19:09:56;;;;;;;25.50;14.25;;;;;;;19.84;60.36;101136.30;1716426;80;21265;-54
2023/08/13 19:18:02;;;;;;;22.48;13.78;;;;;;;19.74;60.97;101140.09;1720135;78;21563;-54
2023/08/13 19:21:07;;;;;;;20.32;13.72;;;;;;;19.69;61.11;101137.10;1713102;80;21859;-55
2023/08/13 19:26:42;;;;;;;26.02;14.47;;;;;;;19.55;61.40;101145.14;1720945;80;21205;-55
2023/08/13 19:32:18;;;;;;;20.77;13.62;;;;;;;19.47;61.81;101143.97;1715962;79;21250;-55
2023/08/13 19:37:53;;;;;;;21.20;13.50;;;;;;;19.36;62.22;101148.79;1719899;80;21374;-55
2023/08/13 19:41:03;;;;;;;18.42;12.50;;;;;;;19.32;62.36;101148.36;1722858;80;21342;-55
2023/08/13 19:44:09;;;;;;;19.87;14.07;;;;;;;19.28;62.57;101144.31;1721708;81;21483;-55
2023/08/13 19:47:01;;;;;;;33.48;18.57;;;;;;;19.22;62.74;101144.59;1679051;82;21714;-56
2023/08/13 19:50:08;;;;;;;36.05;21.55;;;;;;;19.17;62.95;101144.37;1682068;80;21979;-55
2023/08/13 19:58:13;;;;;;;25.05;13.93;;;;;;;19.05;63.55;101147.47;1709264;81;21313;-54
2023/08/13 20:03:50;;;;;;;18.45;12.50;;;;;;;19.01;63.94;101153.66;1700747;81;21972;-55
2023/08/13 20:06:57;;;;;;;25.35;12.10;;;;;;;18.99;64.13;101152.48;1704102;80;21241;-54
2023/08/13 20:12:30;;;;;;;19.57;12.98;;;;;;;18.95;64.56;101150.31;1702191;79;21255;-55
2023/08/13 20:18:06;;;;;;;32.15;17.25;;;;;;;18.86;64.72;101157.14;1701350;79;21765;-54
2023/08/13 20:21:12;;;;;;;31.23;17.98;;;;;;;18.82;64.90;101156.70;1703208;80;21216;-54
2023/08/13 20:26:56;;;;;;;28.47;17.05;;;;;;;18.75;65.25;101161.40;1705337;80;21350;-55
2023/08/13 20:30:03;;;;;;;26.00;16.65;;;;;;;18.72;65.35;101156.80;1690806;80;21486;-54
2023/08/13 20:33:14;;;;;;;25.90;14.93;;;;;;;18.68;65.54;101159.69;1689848;81;21255;-54
2023/08/13 20:36:17;;;;;;;21.37;13.93;;;;;;;18.65;65.69;101166.48;1632092;83;21764;-54
2023/08/13 20:39:22;;;;;;;23.75;15.35;;;;;;;18.64;65.99;101168.09;1649051;83;21242;-54
2023/08/13 20:44:56;;;;;;;21.50;13.28;;;;;;;18.59;66.32;101164.56;1642818;82;21261;-55
2023/08/13 20:53:02;;;;;;;19.87;12.30;;;;;;;18.54;66.71;101166.23;1693464;79;21578;-55
2023/08/13 20:58:37;;;;;;;29.87;15.68;;;;;;;18.52;67.02;101169.22;1672128;81;21636;-53
2023/08/13 21:04:12;;;;;;;23.07;15.80;;;;;;;18.45;67.18;101172.52;1644090;82;21244;-53
2023/08/13 21:09:47;;;;;;;22.02;13.30;;;;;;;18.37;67.30;101178.20;1678606;82;21415;-55
2023/08/13 21:12:52;;;;;;;21.97;13.80;;;;;;;18.34;67.39;101181.39;1676853;80;21371;-55
2023/08/13 21:18:27;;;;;;;42.88;19.90;;;;;;;18.27;67.69;101188.81;1672708;82;21360;-55
2023/08/13 21:24:03;;;;;;;38.38;17.77;;;;;;;18.23;67.95;101186.14;1646168;82;21730;-53
2023/08/13 21:29:37;;;;;;;38.40;17.52;;;;;;;18.18;68.22;101190.05;1619940;84;21806;-55
2023/08/13 21:35:14;;;;;;;13.00;8.58;;;;;;;18.13;68.45;101183.41;1651281;82;22064;-54
2023/08/13 21:40:50;;;;;;;14.40;9.48;;;;;;;18.10;68.78;101187.45;1666884;82;21251;-55
2023/08/13 21:46:26;;;;;;;15.78;8.65;;;;;;;18.05;68.90;101196.91;1670058;82;21283;-55
2023/08/13 21:54:31;;;;;;;12.95;8.95;;;;;;;17.95;69.09;101196.41;1671533;81;21228;-55
2023/08/13 21:57:36;;;;;;;14.07;8.45;;;;;;;17.95;69.22;101198.34;1676580;82;21599;-53
2023/08/13 22:03:11;;;;;;;16.52;8.50;;;;;;;17.92;69.57;101206.52;1669898;81;21433;-54
2023/08/13 22:08:46;;;;;;;15.70;8.93;;;;;;;17.88;69.79;101207.48;1669743;82;21851;-55
2023/08/13 22:14:22;;;;;;;16.50;8.23;;;;;;;17.79;69.75;101210.61;1667534;81;21216;-55
2023/08/13 22:20:01;;;;;;;27.00;13.58;;;;;;;17.73;69.91;101207.23;1680659;81;21244;-56
2023/08/13 22:23:02;;;;;;;57.00;18.92;;;;;;;17.70;70.06;101201.59;1679965;81;21251;-56
2023/08/13 22:26:09;;;;;;;53.05;21.48;;;;;;;17.70;70.24;101209.03;1679878;81;21247;-55
2023/08/13 22:29:00;;;;;;;52.70;21.00;;;;;;;17.67;70.35;101203.89;1673904;81;21211;-55
2023/08/13 22:34:36;;;;;;;47.88;18.98;;;;;;;17.65;70.62;101210.16;1662747;82;21236;-55
2023/08/13 22:37:41;;;;;;;42.67;17.52;;;;;;;17.63;70.69;101208.14;1660389;80;21292;-55
2023/08/13 22:43:14;;;;;;;30.40;14.23;;;;;;;17.53;70.67;101218.19;1671737;82;21366;-54
2023/08/13 22:46:20;;;;;;;28.65;13.25;;;;;;;17.51;70.73;101218.04;1667093;83;21224;-54
2023/08/13 22:54:26;;;;;;;19.20;9.53;;;;;;;17.41;70.99;101211.98;1670660;82;21764;-54
2023/08/13 23:00:01;;;;;;;12.95;8.33;;;;;;;17.38;71.27;101212.34;1667160;81;21274;-55
2023/08/13 23:05:38;;;;;;;14.90;7.65;;;;;;;17.33;71.36;101216.27;1673144;83;21239;-56